Time;durP1;ratioP1;P1;durP2;ratioP2;P2;SDS_P1;SDS_P2;PMS_P1;PMS_P2;Temp;Humidity;BMP_temperature;BMP_pressure;BME280_temperature;BME280_humidity;BME280_pressure;Samples;Min_cycle;Max_cycle;Signal;HPM_P1;HPM_P2
2022/09/17 00:00:38;;;;;;;8.90;8.17;;;;;;;16.81;97.46;92075.69;5069582;28;20220;-73
2022/09/17 00:03:03;;;;;;;9.00;8.10;;;;;;;16.75;96.11;92030.31;5069766;28;20190;-75
2022/09/17 00:05:29;;;;;;;9.90;8.67;;;;;;;16.65;96.18;92046.56;5068758;28;20217;-75
2022/09/17 00:07:54;;;;;;;10.87;7.83;;;;;;;16.69;96.54;92044.81;5069587;28;20224;-74
2022/09/17 00:10:22;;;;;;;9.13;8.57;;;;;;;16.92;95.78;92055.66;5069351;28;20225;-74
2022/09/17 00:12:48;;;;;;;9.63;8.97;;;;;;;16.88;97.63;92042.41;5070819;28;20181;-74
2022/09/17 00:15:14;;;;;;;8.83;8.33;;;;;;;16.85;98.19;92048.34;5073316;28;20210;-74
2022/09/17 00:17:39;;;;;;;9.63;9.07;;;;;;;16.79;97.07;92007.47;5073570;28;20211;-74
2022/09/17 00:20:12;;;;;;;8.83;8.13;;;;;;;16.99;96.13;92025.03;5072679;28;20260;-74
2022/09/17 00:22:38;;;;;;;8.63;8.07;;;;;;;16.86;97.22;92012.94;5073564;28;20169;-75
2022/09/17 00:25:05;;;;;;;9.23;8.50;;;;;;;16.92;96.98;92022.16;5072958;28;20301;-75
2022/09/17 00:27:31;;;;;;;8.23;7.83;;;;;;;16.83;96.88;92026.78;5072469;28;20174;-75
2022/09/17 00:29:57;;;;;;;8.07;7.50;;;;;;;16.89;96.97;92014.91;5072521;28;20252;-75
2022/09/17 00:32:22;;;;;;;9.57;8.60;;;;;;;16.78;97.44;92013.81;5072145;28;20182;-75
2022/09/17 00:34:51;;;;;;;8.87;7.57;;;;;;;16.87;96.72;92011.84;5073062;28;20221;-74
2022/09/17 00:37:19;;;;;;;9.47;8.97;;;;;;;16.89;97.95;92032.59;5071761;28;20209;-75
2022/09/17 00:39:44;;;;;;;9.40;8.47;;;;;;;16.85;98.21;92035.16;5072681;28;20228;-75
2022/09/17 00:42:11;;;;;;;10.40;9.37;;;;;;;16.73;98.59;92029.84;5073098;28;20249;-75
2022/09/17 00:44:49;;;;;;;9.30;8.33;;;;;;;17.08;95.56;92033.59;5072664;28;20216;-76
2022/09/17 00:47:23;;;;;;;9.33;8.60;;;;;;;17.04;96.38;92053.03;5073039;28;20192;-77
2022/09/17 00:49:53;;;;;;;9.33;8.60;;;;;;;16.96;95.67;92030.97;5073046;28;20244;-76
2022/09/17 00:52:26;;;;;;;8.77;8.20;;;;;;;16.91;96.07;92033.81;5071780;28;20192;-77
2022/09/17 00:54:58;;;;;;;8.73;8.03;;;;;;;16.75;96.32;92050.63;5072454;28;20229;-76
2022/09/17 00:57:25;;;;;;;8.70;7.93;;;;;;;16.87;96.70;92059.28;5072386;28;20233;-76
2022/09/17 00:59:50;;;;;;;8.70;7.67;;;;;;;16.78;97.56;92053.38;5072481;28;20289;-76
2022/09/17 01:02:16;;;;;;;9.10;8.47;;;;;;;16.74;96.81;92064.91;5073136;28;20185;-76
2022/09/17 01:04:41;;;;;;;9.57;8.57;;;;;;;16.56;98.84;92058.31;5072279;28;20229;-75
2022/09/17 01:07:38;;;;;;;10.23;9.23;;;;;;;16.78;97.41;92063.16;5072443;28;20185;-76
2022/09/17 01:10:06;;;;;;;9.07;8.47;;;;;;;16.82;97.39;92050.84;5071850;28;20229;-76
2022/09/17 01:12:43;;;;;;;9.37;8.87;;;;;;;16.65;99.04;92045.78;5072179;28;20190;-75
2022/09/17 01:15:20;;;;;;;9.33;8.33;;;;;;;16.76;98.15;92031.81;5072013;28;20227;-76
2022/09/17 01:18:07;;;;;;;9.37;8.63;;;;;;;16.62;99.59;92031.41;5072327;28;20212;-76
2022/09/17 01:21:10;;;;;;;9.23;8.53;;;;;;;16.50;100.00;92033.28;5066678;28;20217;-76
2022/09/17 01:23:57;;;;;;;9.80;9.10;;;;;;;16.70;99.33;92025.25;5071868;28;20193;-77
2022/09/17 01:26:44;;;;;;;10.03;9.33;;;;;;;16.68;99.15;92029.31;5071666;28;20177;-77
2022/09/17 01:29:44;;;;;;;9.17;8.67;;;;;;;16.63;99.74;92025.03;5071480;28;20232;-76
2022/09/17 01:32:24;;;;;;;9.87;9.30;;;;;;;16.49;100.00;92027.22;5072363;28;20284;-76
2022/09/17 01:35:13;;;;;;;10.33;9.30;;;;;;;16.69;98.94;92028.22;5071702;28;20303;-76
2022/09/17 01:38:08;;;;;;;9.90;9.00;;;;;;;16.70;99.68;92025.25;5066108;28;20197;-76
2022/09/17 01:40:51;;;;;;;9.67;8.87;;;;;;;16.64;100.00;92023.19;5071760;28;20224;-76
2022/09/17 01:43:26;;;;;;;10.43;9.57;;;;;;;16.50;100.00;92046.44;5071794;28;20189;-77
2022/09/17 01:45:55;;;;;;;9.47;8.83;;;;;;;16.73;99.22;92026.47;5070628;28;20229;-77
2022/09/17 01:48:26;;;;;;;10.67;9.77;;;;;;;16.67;100.00;92028.53;5067512;28;20181;-77
2022/09/17 01:51:10;;;;;;;10.97;9.63;;;;;;;16.56;100.00;91987.16;5071433;28;20229;-77
2022/09/17 01:53:43;;;;;;;10.10;9.47;;;;;;;17.05;87.93;91955.13;5071534;28;20223;-76
2022/09/17 01:56:12;;;;;;;8.83;8.13;;;;;;;19.53;69.89;91945.03;5071281;28;20221;-76
2022/09/17 01:58:45;;;;;;;9.30;8.33;;;;;;;20.15;67.07;91947.34;5071413;28;20181;-76
2022/09/17 02:01:15;;;;;;;9.23;8.47;;;;;;;20.06;66.54;91960.78;5072016;28;20171;-76
2022/09/17 02:03:48;;;;;;;8.87;8.17;;;;;;;20.09;70.23;91999.06;5071298;28;20185;-76
2022/09/17 02:06:21;;;;;;;12.77;10.67;;;;;;;18.59;86.55;92031.72;5071393;28;20250;-76
2022/09/17 02:08:53;;;;;;;12.30;11.00;;;;;;;17.59;94.66;92019.66;5071293;28;20241;-77
2022/09/17 02:11:19;;;;;;;13.77;12.20;;;;;;;17.34;96.28;91988.34;5071358;28;20197;-77
2022/09/17 02:13:44;;;;;;;12.40;11.30;;;;;;;17.27;99.67;91988.94;5069862;28;20188;-75
2022/09/17 02:16:17;;;;;;;15.67;11.77;;;;;;;17.18;99.78;91993.56;5070321;28;20174;-76
2022/09/17 02:18:49;;;;;;;12.97;11.77;;;;;;;17.03;100.00;91959.19;5070822;28;20196;-76
2022/09/17 02:22:00;;;;;;;12.93;11.63;;;;;;;17.02;100.00;91903.06;5070929;28;20178;-76
2022/09/17 02:24:30;;;;;;;7.57;7.17;;;;;;;18.58;78.23;91858.34;5056241;28;20237;-76
2022/09/17 02:27:07;;;;;;;9.20;8.60;;;;;;;19.45;72.62;91848.81;5069162;28;20185;-76
2022/09/17 02:29:43;;;;;;;8.23;7.53;;;;;;;20.07;69.17;91827.16;5063365;28;20213;-75
2022/09/17 02:32:10;;;;;;;8.77;8.13;;;;;;;20.19;68.97;91829.66;5071309;28;20269;-76
2022/09/17 02:34:35;;;;;;;13.30;8.87;;;;;;;20.43;68.04;91842.53;5070719;28;21684;-76
2022/09/17 02:37:02;;;;;;;9.70;8.70;;;;;;;20.46;68.18;91841.81;5069792;28;20203;-76
2022/09/17 02:39:27;;;;;;;9.10;8.20;;;;;;;20.47;66.94;91853.94;5061676;28;20223;-76
2022/09/17 02:42:16;;;;;;;18.87;8.33;;;;;;;20.57;65.82;91879.84;5069073;28;20231;-76
2022/09/17 02:45:05;;;;;;;8.80;7.87;;;;;;;20.77;64.28;91903.63;5070373;28;20250;-76
2022/09/17 02:47:33;;;;;;;7.80;7.20;;;;;;;20.86;63.29;91965.16;5059856;28;20208;-76
2022/09/17 02:50:04;;;;;;;9.83;8.83;;;;;;;19.55;80.53;91953.38;5070125;28;20234;-76
2022/09/17 02:52:41;;;;;;;10.47;9.67;;;;;;;18.79;85.33;91925.69;5070995;28;20195;-76
2022/09/17 02:55:28;;;;;;;9.90;9.23;;;;;;;18.37;88.12;91919.41;5068812;28;20211;-76
2022/09/17 02:58:03;;;;;;;10.20;9.27;;;;;;;18.51;87.99;91911.06;5070165;28;20252;-76
2022/09/17 03:00:29;;;;;;;10.80;9.67;;;;;;;18.09;90.04;91928.50;5043908;28;20215;-76
2022/09/17 03:02:57;;;;;;;17.70;10.53;;;;;;;18.07;90.76;91917.53;5050326;28;20205;-76
2022/09/17 03:05:25;;;;;;;11.00;10.00;;;;;;;17.94;91.62;91900.22;5065070;28;20234;-76
2022/09/17 03:07:50;;;;;;;12.27;9.50;;;;;;;17.88;92.07;91896.31;5070595;28;20182;-76
2022/09/17 03:10:18;;;;;;;10.70;9.80;;;;;;;17.80;92.32;91878.75;5069712;28;20237;-76
2022/09/17 03:12:44;;;;;;;10.67;9.80;;;;;;;17.62;93.93;91861.72;5069459;28;20196;-77
2022/09/17 03:15:09;;;;;;;10.47;9.77;;;;;;;17.62;92.10;91856.44;5069913;28;20222;-76
2022/09/17 03:17:35;;;;;;;11.43;10.43;;;;;;;17.65;94.29;91847.84;5069854;28;20920;-76
2022/09/17 03:20:00;;;;;;;11.83;10.83;;;;;;;17.44;95.70;91851.47;5069678;28;20271;-76
2022/09/17 03:22:26;;;;;;;11.60;10.40;;;;;;;17.26;97.88;91878.47;5070251;28;20199;-76
2022/09/17 03:24:51;;;;;;;11.23;10.23;;;;;;;16.87;100.00;91884.53;5069601;28;20233;-76
2022/09/17 03:27:17;;;;;;;11.20;10.40;;;;;;;16.81;100.00;91930.69;5069807;28;20185;-76
2022/09/17 03:29:42;;;;;;;12.17;10.97;;;;;;;16.65;100.00;91930.59;5069457;28;20236;-76
2022/09/17 03:32:08;;;;;;;12.30;11.30;;;;;;;16.64;100.00;91889.50;5069495;28;20181;-76
2022/09/17 03:34:33;;;;;;;11.60;10.97;;;;;;;16.60;100.00;91882.59;5069709;28;20280;-76
2022/09/17 03:36:59;;;;;;;12.33;10.43;;;;;;;16.86;100.00;91904.84;5069203;28;20210;-73
2022/09/17 03:39:24;;;;;;;12.20;9.77;;;;;;;16.91;99.66;91894.06;5069474;28;20247;-77
2022/09/17 03:41:50;;;;;;;11.23;10.13;;;;;;;16.92;99.04;91887.69;5069137;28;20181;-76
2022/09/17 03:44:17;;;;;;;12.03;10.27;;;;;;;16.96;98.82;91871.97;5069302;28;20209;-76
2022/09/17 03:46:43;;;;;;;10.27;9.27;;;;;;;17.12;98.25;91875.44;5069511;28;20182;-76
2022/09/17 03:49:08;;;;;;;10.53;9.70;;;;;;;17.16;97.38;91863.09;5068842;28;20277;-76
2022/09/17 03:51:33;;;;;;;10.13;9.43;;;;;;;17.07;96.75;91858.00;5069714;28;20188;-76
2022/09/17 03:53:59;;;;;;;9.37;8.50;;;;;;;17.20;96.00;91856.81;5069583;28;20868;-76
2022/09/17 03:56:25;;;;;;;8.50;7.90;;;;;;;17.07;96.85;91854.59;5068291;28;20228;-76
2022/09/17 03:58:57;;;;;;;9.50;8.80;;;;;;;17.07;95.47;91841.41;5088686;28;20480;-76
2022/09/17 04:01:22;;;;;;;9.97;9.03;;;;;;;17.21;94.29;91860.25;5090081;28;20173;-76
2022/09/17 04:03:47;;;;;;;9.27;8.37;;;;;;;17.22;93.42;91865.19;5089289;28;20195;-76
2022/09/17 04:06:13;;;;;;;13.87;10.23;;;;;;;17.19;93.50;91868.50;5089298;28;20207;-76
2022/09/17 04:08:38;;;;;;;9.40;8.70;;;;;;;17.33;93.17;91878.66;5087191;28;20204;-76
2022/09/17 04:11:04;;;;;;;8.73;8.13;;;;;;;17.32;93.89;91901.63;5069259;28;20177;-76
2022/09/17 04:13:29;;;;;;;11.67;8.53;;;;;;;17.58;90.30;91890.66;5069082;28;20204;-76
2022/09/17 04:15:54;;;;;;;9.67;8.87;;;;;;;17.58;91.94;91909.91;5061571;28;20252;-77
2022/09/17 04:18:20;;;;;;;8.37;7.67;;;;;;;17.50;91.53;91894.97;5065806;28;20239;-76
2022/09/17 04:20:45;;;;;;;8.77;7.97;;;;;;;17.46;91.51;91923.13;5083124;28;20286;-76
2022/09/17 04:23:11;;;;;;;10.40;9.37;;;;;;;17.80;92.18;91950.81;5067300;28;20189;-76
2022/09/17 04:25:37;;;;;;;11.07;9.30;;;;;;;17.65;94.34;91959.44;5084684;28;20286;-77
2022/09/17 04:28:02;;;;;;;9.03;8.40;;;;;;;17.70;93.14;91982.97;5089474;28;20190;-76
2022/09/17 04:30:28;;;;;;;10.33;9.43;;;;;;;17.39;95.24;91985.47;5089887;28;20223;-76
2022/09/17 04:32:53;;;;;;;9.60;8.80;;;;;;;17.38;96.25;91990.00;5089740;28;20184;-76
2022/09/17 04:35:18;;;;;;;8.77;8.17;;;;;;;17.42;97.47;92017.25;5089264;28;20228;-75
2022/09/17 04:37:51;;;;;;;9.30;8.57;;;;;;;17.30;97.07;91998.03;5089349;28;20238;-76
2022/09/17 04:40:16;;;;;;;12.10;8.37;;;;;;;17.26;98.97;92005.84;5088989;28;20230;-76
2022/09/17 04:42:42;;;;;;;9.20;8.40;;;;;;;17.09;100.00;92018.53;5089391;28;20189;-76
2022/09/17 04:45:07;;;;;;;9.70;9.07;;;;;;;17.12;100.00;92029.19;5087630;28;20210;-76
2022/09/17 04:47:33;;;;;;;9.80;9.00;;;;;;;17.21;100.00;92016.63;5089423;28;20189;-76
2022/09/17 04:49:58;;;;;;;10.00;9.00;;;;;;;17.15;100.00;92007.41;5088893;28;20233;-76
2022/09/17 04:52:23;;;;;;;14.27;8.97;;;;;;;17.16;100.00;91993.13;5088364;28;20601;-76
2022/09/17 04:54:49;;;;;;;11.10;9.50;;;;;;;17.37;100.00;92006.16;5088911;28;20236;-77
2022/09/17 04:57:14;;;;;;;10.80;9.80;;;;;;;17.52;100.00;92013.41;5089014;28;20224;-77
2022/09/17 04:59:39;;;;;;;9.20;8.60;;;;;;;17.73;99.37;92052.84;5076542;28;20221;-76
2022/09/17 05:02:05;;;;;;;9.73;8.80;;;;;;;17.49;99.17;92025.38;5093622;28;20177;-73
2022/09/17 05:04:30;;;;;;;10.47;9.47;;;;;;;17.18;100.00;92027.84;5092545;28;20243;-73
2022/09/17 05:06:56;;;;;;;11.37;10.13;;;;;;;17.12;100.00;92018.63;5091730;28;20200;-74
2022/09/17 05:09:21;;;;;;;11.83;10.70;;;;;;;17.01;100.00;92009.63;5092014;28;20796;-74
2022/09/17 05:11:46;;;;;;;11.30;10.43;;;;;;;17.07;100.00;92018.88;5092817;28;20189;-74
2022/09/17 05:14:12;;;;;;;11.60;10.70;;;;;;;17.01;100.00;92038.63;5091972;28;20221;-74
2022/09/17 05:16:38;;;;;;;11.50;10.63;;;;;;;17.05;100.00;92033.47;5092248;28;20209;-73
2022/09/17 05:19:03;;;;;;;11.50;10.40;;;;;;;16.97;100.00;92011.41;5084575;28;20231;-73
2022/09/17 05:21:29;;;;;;;11.00;10.10;;;;;;;16.93;100.00;92033.50;5091485;28;20195;-74
2022/09/17 05:23:54;;;;;;;12.70;11.57;;;;;;;16.97;100.00;91994.81;5088620;28;20243;-73
2022/09/17 05:26:19;;;;;;;14.23;11.20;;;;;;;17.25;100.00;92006.97;5104215;28;20172;-73
2022/09/17 05:28:45;;;;;;;15.10;10.83;;;;;;;17.19;100.00;91999.59;5089651;28;20196;-73
2022/09/17 05:31:10;;;;;;;11.07;10.33;;;;;;;17.22;100.00;91999.72;5070563;28;20205;-73
2022/09/17 05:33:36;;;;;;;10.90;10.17;;;;;;;17.22;100.00;92010.25;5068953;28;20208;-74
2022/09/17 05:36:01;;;;;;;11.90;10.87;;;;;;;17.32;100.00;92017.72;5069910;28;20173;-75
2022/09/17 05:38:26;;;;;;;10.77;10.00;;;;;;;17.28;100.00;92027.41;5066135;28;20232;-74
2022/09/17 05:40:52;;;;;;;10.47;9.43;;;;;;;17.43;100.00;92024.06;5070633;28;20229;-72
2022/09/17 05:43:17;;;;;;;11.13;10.13;;;;;;;17.63;100.00;92011.06;5070939;28;20185;-75
2022/09/17 05:45:43;;;;;;;11.33;10.30;;;;;;;17.96;100.00;92014.97;5070268;28;20222;-74
2022/09/17 05:48:12;;;;;;;10.23;9.40;;;;;;;18.16;100.00;92015.88;5071120;28;20201;-74
2022/09/17 05:50:38;;;;;;;7.60;7.20;;;;;;;18.12;96.70;92025.59;5065178;28;20217;-75
2022/09/17 06:00:13;;;;;;;8.27;7.87;;;;;;;18.21;89.22;92031.50;5116594;27;20313;-73
2022/09/17 06:02:38;;;;;;;8.17;7.87;;;;;;;18.21;90.00;92018.28;5110231;28;20188;-73
2022/09/17 06:05:04;;;;;;;9.43;9.03;;;;;;;18.31;86.70;92020.41;5105578;28;20225;-74
2022/09/17 06:07:29;;;;;;;7.23;6.83;;;;;;;18.41;82.46;92019.97;5105938;28;20184;-73
2022/09/17 06:09:55;;;;;;;8.60;7.77;;;;;;;18.43;82.54;92007.94;5104293;28;20263;-74
2022/09/17 06:12:21;;;;;;;7.80;7.50;;;;;;;18.61;79.85;92032.94;5106098;28;20259;-73
2022/09/17 06:14:46;;;;;;;8.33;7.93;;;;;;;18.81;79.98;92041.72;5105386;28;20225;-72
2022/09/17 06:17:12;;;;;;;8.30;7.90;;;;;;;18.81;82.36;92034.56;5106106;28;20242;-76
2022/09/17 06:19:37;;;;;;;8.03;7.63;;;;;;;18.81;78.28;92044.34;5102236;28;20252;-74
2022/09/17 06:22:04;;;;;;;8.37;7.73;;;;;;;18.86;77.66;92047.50;5106138;28;20190;-74
2022/09/17 06:24:30;;;;;;;7.87;7.30;;;;;;;18.92;75.77;92045.38;5097318;28;20225;-76
2022/09/17 06:26:55;;;;;;;8.00;7.60;;;;;;;19.08;79.21;92059.38;5085871;28;20191;-76
2022/09/17 06:29:21;;;;;;;8.57;7.97;;;;;;;19.09;75.02;92063.53;5090505;28;20225;-76
2022/09/17 06:31:47;;;;;;;7.57;7.27;;;;;;;19.14;75.98;92081.81;5106311;28;20192;-77
2022/09/17 06:34:13;;;;;;;9.80;9.07;;;;;;;18.84;89.06;92118.50;5105360;28;20244;-79
2022/09/17 06:36:38;;;;;;;12.33;10.93;;;;;;;18.29;95.63;92137.03;5105998;28;20179;-79
2022/09/17 06:39:04;;;;;;;12.13;10.83;;;;;;;18.26;97.25;92139.56;5102753;28;20336;-77
2022/09/17 06:41:29;;;;;;;10.80;10.00;;;;;;;18.02;98.59;92135.16;5106090;28;20218;-80
2022/09/17 06:43:55;;;;;;;11.90;10.87;;;;;;;17.95;98.34;92118.31;5104956;28;20222;-78
2022/09/17 06:46:20;;;;;;;11.90;10.80;;;;;;;18.04;99.42;92137.47;5106915;28;20188;-74
2022/09/17 06:48:46;;;;;;;11.93;10.70;;;;;;;17.94;100.00;92107.00;5104783;28;20267;-74
2022/09/17 06:51:12;;;;;;;11.90;10.70;;;;;;;17.98;100.00;92093.91;5105650;28;21089;-75
2022/09/17 06:53:38;;;;;;;11.57;10.57;;;;;;;18.08;100.00;92090.78;5099998;28;20201;-75
2022/09/17 06:56:05;;;;;;;12.60;11.10;;;;;;;18.08;100.00;92090.78;5103889;28;20213;-73
2022/09/17 06:58:30;;;;;;;15.30;11.17;;;;;;;18.02;100.00;92050.63;5105923;28;20218;-73
2022/09/17 07:01:00;;;;;;;11.53;10.53;;;;;;;18.39;100.00;92069.75;5102057;28;20243;-72
2022/09/17 07:03:26;;;;;;;12.30;10.37;;;;;;;18.65;98.50;92051.50;5103783;28;20177;-73
2022/09/17 07:05:52;;;;;;;12.37;10.43;;;;;;;18.82;94.69;92019.44;5105167;28;20236;-72
2022/09/17 07:08:17;;;;;;;11.30;10.10;;;;;;;18.83;94.48;92010.41;5104784;28;20189;-73
2022/09/17 07:10:42;;;;;;;10.53;9.53;;;;;;;19.02;96.73;92021.03;5093635;28;20287;-75
2022/09/17 07:13:08;;;;;;;11.07;10.00;;;;;;;19.33;95.68;92018.34;5094217;28;20195;-72
2022/09/17 07:15:33;;;;;;;10.07;9.20;;;;;;;19.73;89.90;91995.00;5086515;28;20255;-72
2022/09/17 07:17:59;;;;;;;10.27;9.37;;;;;;;19.83;89.31;91994.41;5089695;28;20206;-72
2022/09/17 07:20:24;;;;;;;11.07;10.13;;;;;;;19.90;90.54;91989.25;5094418;28;20211;-73
2022/09/17 07:22:57;;;;;;;13.73;12.47;;;;;;;19.78;88.34;91992.03;5102878;28;20178;-77
2022/09/17 07:25:25;;;;;;;10.10;9.43;;;;;;;20.16;87.19;92005.28;5088086;28;20221;-76
2022/09/17 07:27:51;;;;;;;10.03;9.23;;;;;;;20.36;83.06;92006.00;5093630;28;20242;-78
2022/09/17 07:30:17;;;;;;;9.40;8.70;;;;;;;20.49;83.08;92010.81;5076605;28;20220;-76
2022/09/17 07:32:43;;;;;;;9.67;8.70;;;;;;;20.79;82.97;91999.53;5071894;28;20185;-73
2022/09/17 07:35:08;;;;;;;11.00;10.30;;;;;;;20.94;79.68;92003.94;5060608;28;20336;-75
2022/09/17 07:37:34;;;;;;;9.83;9.10;;;;;;;20.93;79.47;91997.88;5070206;28;20194;-76
2022/09/17 07:39:59;;;;;;;7.72;7.22;;;;;;;21.09;78.78;92003.06;5067273;28;20225;-74
2022/09/17 07:42:26;;;;;;;8.90;8.35;;;;;;;21.03;77.15;91983.28;5051752;28;20262;-75
2022/09/17 07:44:51;;;;;;;10.35;9.32;;;;;;;20.50;78.19;91977.88;5070886;28;20220;-76
2022/09/17 07:47:17;;;;;;;9.07;8.45;;;;;;;20.37;79.86;91987.09;5067424;28;20191;-75
2022/09/17 07:49:42;;;;;;;11.00;8.77;;;;;;;20.10;79.92;91966.91;5070207;28;20224;-75
2022/09/17 07:52:08;;;;;;;9.10;8.40;;;;;;;20.03;81.07;91995.19;5069611;28;20188;-75
2022/09/17 07:54:36;;;;;;;9.90;9.00;;;;;;;20.24;82.37;92014.91;5074512;28;20315;-77
2022/09/17 07:57:02;;;;;;;10.30;9.30;;;;;;;20.22;84.06;91995.94;5071566;28;20194;-75
2022/09/17 07:59:27;;;;;;;11.00;10.10;;;;;;;19.80;85.93;91973.19;5068738;28;20223;-75
2022/09/17 08:01:53;;;;;;;11.60;10.40;;;;;;;19.93;87.07;91983.25;5070810;28;20218;-75
2022/09/17 08:04:18;;;;;;;12.17;10.93;;;;;;;19.77;85.90;91974.63;5069481;28;20224;-75
2022/09/17 08:06:47;;;;;;;13.20;11.43;;;;;;;20.25;84.47;91989.19;5070075;28;20225;-76
2022/09/17 08:09:14;;;;;;;11.67;10.40;;;;;;;19.83;82.94;91883.16;5059849;28;20227;-75
2022/09/17 08:11:40;;;;;;;9.77;9.27;;;;;;;20.61;83.15;91965.53;5067383;28;20243;-75
2022/09/17 08:14:06;;;;;;;14.13;10.53;;;;;;;20.68;82.50;91955.03;5074401;28;20238;-76
2022/09/17 08:16:31;;;;;;;11.07;9.90;;;;;;;20.78;82.03;91979.44;5089750;28;20215;-75
2022/09/17 08:18:56;;;;;;;11.20;9.83;;;;;;;20.45;82.78;91951.63;5087215;28;20223;-76
2022/09/17 08:21:22;;;;;;;10.03;9.30;;;;;;;20.61;82.83;91954.94;5070336;28;20183;-76
2022/09/17 08:23:48;;;;;;;11.40;10.33;;;;;;;20.76;81.59;91965.75;5070405;28;20184;-75
2022/09/17 08:26:17;;;;;;;10.53;9.83;;;;;;;21.15;81.11;91959.16;5070755;28;20189;-75
2022/09/17 08:28:51;;;;;;;11.50;9.30;;;;;;;21.56;79.87;91982.09;5070806;28;20185;-76
2022/09/17 08:31:17;;;;;;;9.70;8.93;;;;;;;21.49;77.86;91944.81;5069958;28;20284;-75
2022/09/17 08:33:44;;;;;;;9.00;8.20;;;;;;;20.76;71.73;91881.63;5070728;28;20190;-75
2022/09/17 08:36:13;;;;;;;9.37;8.67;;;;;;;21.16;76.67;91980.06;5070763;28;20214;-75
2022/09/17 08:38:39;;;;;;;8.87;8.27;;;;;;;21.03;74.06;91960.13;5070569;28;20199;-75
2022/09/17 08:41:04;;;;;;;10.00;8.23;;;;;;;21.23;75.01;91987.34;5070440;28;20195;-75
2022/09/17 08:43:35;;;;;;;8.53;8.03;;;;;;;21.38;74.00;91992.50;5070785;28;20212;-74
2022/09/17 08:46:00;;;;;;;9.27;8.43;;;;;;;21.17;73.50;91983.47;5070203;28;20217;-74
2022/09/17 08:48:36;;;;;;;8.63;8.13;;;;;;;21.20;73.22;91964.91;5070911;28;20182;-75
2022/09/17 08:51:20;;;;;;;9.83;7.80;;;;;;;20.97;76.95;91966.09;5097315;28;20210;-75
2022/09/17 08:54:07;;;;;;;9.90;9.20;;;;;;;21.04;76.03;91964.34;5103727;28;20191;-73
2022/09/17 08:56:34;;;;;;;7.97;7.40;;;;;;;21.29;75.18;91975.28;5096934;28;20192;-75
2022/09/17 08:59:09;;;;;;;10.10;7.97;;;;;;;20.52;78.21;91962.38;5105037;28;20244;-74
2022/09/17 09:01:49;;;;;;;8.67;7.97;;;;;;;20.49;77.25;91971.03;5095277;28;20207;-74
2022/09/17 09:04:32;;;;;;;8.75;8.13;;;;;;;20.16;79.66;91973.50;5084411;28;20227;-74
2022/09/17 09:07:12;;;;;;;8.73;8.00;;;;;;;20.33;80.25;91974.91;5070081;28;20206;-74
2022/09/17 09:09:44;;;;;;;9.67;9.07;;;;;;;20.29;80.88;91974.09;5078804;28;20232;-74
2022/09/17 09:12:21;;;;;;;9.95;9.25;;;;;;;20.22;85.28;91972.06;5078962;28;20172;-74
2022/09/17 09:15:00;;;;;;;10.50;9.77;;;;;;;20.02;91.47;91986.47;5086407;28;20246;-75
2022/09/17 09:17:33;;;;;;;8.83;8.20;;;;;;;20.08;88.09;91985.06;5091868;28;20182;-74
2022/09/17 09:19:58;;;;;;;13.07;10.07;;;;;;;19.76;95.83;91967.81;5089915;28;20754;-74
2022/09/17 09:22:29;;;;;;;11.37;10.27;;;;;;;19.72;96.77;91993.44;5089941;28;20193;-74
2022/09/17 09:25:22;;;;;;;10.23;9.33;;;;;;;19.72;93.98;92005.94;5084082;28;20219;-78
2022/09/17 09:28:02;;;;;;;10.43;9.63;;;;;;;19.48;93.96;92012.25;5086814;28;20182;-75
2022/09/17 09:30:57;;;;;;;9.90;9.10;;;;;;;19.29;94.12;92011.44;5067160;28;20982;-78
2022/09/17 09:33:31;;;;;;;11.77;10.93;;;;;;;19.28;98.91;92013.34;5055971;28;20212;-73
2022/09/17 09:35:56;;;;;;;17.80;12.33;;;;;;;19.13;100.00;92014.09;5068265;28;20219;-73
2022/09/17 09:38:28;;;;;;;11.97;10.77;;;;;;;19.03;100.00;92026.00;5069582;28;20263;-73
2022/09/17 09:41:08;;;;;;;11.03;9.90;;;;;;;19.26;100.00;92034.06;5088424;28;20232;-75
2022/09/17 09:43:51;;;;;;;11.07;10.13;;;;;;;19.03;100.00;92030.53;5089806;28;20178;-72
2022/09/17 09:46:48;;;;;;;11.47;10.53;;;;;;;18.61;100.00;92034.81;5062959;28;20220;-70
2022/09/17 09:49:31;;;;;;;11.00;10.00;;;;;;;18.81;100.00;92037.19;5069177;28;20242;-70
2022/09/17 09:52:15;;;;;;;9.67;9.07;;;;;;;18.60;100.00;92035.94;5066049;28;20171;-72
2022/09/17 09:54:47;;;;;;;10.70;9.70;;;;;;;18.25;100.00;92066.69;5076107;28;20226;-71
2022/09/17 09:57:16;;;;;;;11.47;9.90;;;;;;;18.37;100.00;92061.34;5076152;28;20191;-73
2022/09/17 09:59:41;;;;;;;12.50;9.63;;;;;;;18.33;100.00;92063.16;5062162;28;20242;-70
2022/09/17 10:02:07;;;;;;;14.50;11.50;;;;;;;18.39;100.00;92054.66;5066935;28;20189;-71
2022/09/17 10:04:33;;;;;;;12.40;10.67;;;;;;;18.22;100.00;92009.25;5072730;28;20221;-70
2022/09/17 10:07:06;;;;;;;14.03;12.73;;;;;;;18.10;100.00;91996.13;5076010;28;20270;-71
2022/09/17 10:09:35;;;;;;;13.83;12.63;;;;;;;18.15;100.00;91991.34;5069238;28;20240;-70
2022/09/17 10:12:10;;;;;;;15.50;11.97;;;;;;;18.38;100.00;91962.50;5069234;28;20212;-70
2022/09/17 10:14:37;;;;;;;12.87;11.67;;;;;;;17.83;100.00;91987.13;5069245;28;20291;-72
2022/09/17 10:17:10;;;;;;;12.67;10.77;;;;;;;18.05;100.00;91962.78;5069294;28;20193;-71
2022/09/17 10:19:36;;;;;;;12.03;10.83;;;;;;;17.87;100.00;91952.88;5078192;28;20243;-72
2022/09/17 10:22:26;;;;;;;14.47;11.73;;;;;;;18.07;100.00;91946.59;5089482;28;20203;-70
2022/09/17 10:24:54;;;;;;;14.23;11.00;;;;;;;17.85;100.00;91924.16;5088900;28;20252;-73
2022/09/17 10:27:22;;;;;;;12.40;11.30;;;;;;;18.09;100.00;91910.81;5088215;28;20208;-76
2022/09/17 10:29:51;;;;;;;11.03;10.03;;;;;;;17.97;100.00;91923.31;5072800;28;20218;-73
2022/09/17 10:32:20;;;;;;;9.20;8.67;;;;;;;17.89;100.00;91900.47;5067748;28;20194;-73
2022/09/17 10:35:06;;;;;;;8.40;8.10;;;;;;;17.85;100.00;91923.41;5068694;28;20294;-74
2022/09/17 10:37:42;;;;;;;9.23;8.60;;;;;;;17.87;100.00;91921.19;5068101;28;20783;-73
2022/09/17 10:40:34;;;;;;;8.33;7.83;;;;;;;17.84;100.00;91900.75;5068685;28;20240;-73
2022/09/17 10:43:21;;;;;;;6.87;6.67;;;;;;;18.00;96.56;91872.44;5057857;28;20197;-73
2022/09/17 10:45:56;;;;;;;7.73;7.43;;;;;;;17.92;100.00;91823.22;5088700;28;20303;-74
2022/09/17 10:48:22;;;;;;;7.77;7.47;;;;;;;17.94;95.72;91836.84;5092557;28;20247;-73
2022/09/17 10:50:52;;;;;;;7.70;7.40;;;;;;;18.09;96.63;91831.53;5092536;28;20272;-72
2022/09/17 10:53:22;;;;;;;7.73;7.43;;;;;;;18.18;91.42;91834.78;5092702;28;20224;-73
2022/09/17 10:56:05;;;;;;;8.03;7.73;;;;;;;18.65;83.46;91869.06;5081027;28;20205;-73
2022/09/17 10:58:42;;;;;;;7.23;6.93;;;;;;;19.02;84.42;91867.56;5092578;28;20313;-73
2022/09/17 11:01:30;;;;;;;7.87;7.57;;;;;;;19.49;74.65;91860.22;5091703;28;20197;-74
2022/09/17 11:04:20;;;;;;;7.47;7.07;;;;;;;19.52;78.46;91864.06;5081063;28;20228;-73
2022/09/17 11:07:31;;;;;;;7.40;7.03;;;;;;;19.53;79.84;91874.31;5092410;28;20216;-73
2022/09/17 11:10:12;;;;;;;7.60;7.30;;;;;;;19.79;73.60;91861.16;5037076;28;20231;-74
2022/09/17 11:13:01;;;;;;;7.50;7.20;;;;;;;20.00;74.57;91861.50;5030694;28;20196;-72
2022/09/17 11:15:36;;;;;;;6.70;6.50;;;;;;;20.18;71.61;91878.50;5051048;28;20246;-73
2022/09/17 11:18:38;;;;;;;7.60;7.20;;;;;;;19.77;85.49;91878.50;5071891;28;20190;-74
2022/09/17 11:21:25;;;;;;;10.47;9.77;;;;;;;19.62;97.23;91898.69;5079461;28;20208;-73
2022/09/17 11:24:27;;;;;;;10.43;9.53;;;;;;;20.05;95.02;91882.41;5091929;28;20217;-74
2022/09/17 11:26:56;;;;;;;9.50;8.70;;;;;;;19.78;91.22;91907.28;5082506;28;20202;-74
2022/09/17 11:29:43;;;;;;;12.03;10.73;;;;;;;19.38;99.22;91920.13;5081952;28;20228;-73
2022/09/17 11:32:36;;;;;;;10.47;9.37;;;;;;;19.48;98.37;91924.09;5092415;28;20191;-72
2022/09/17 11:35:15;;;;;;;10.07;9.37;;;;;;;19.52;99.57;91936.28;5081883;28;20250;-73
2022/09/17 11:37:48;;;;;;;13.77;9.77;;;;;;;19.27;98.13;91934.25;5092042;28;20178;-74
2022/09/17 11:40:20;;;;;;;9.93;9.27;;;;;;;19.19;97.10;91894.41;5080011;28;20231;-73
2022/09/17 11:42:59;;;;;;;10.37;9.40;;;;;;;19.82;95.09;91955.81;5084350;28;20180;-74
2022/09/17 11:45:32;;;;;;;9.97;9.17;;;;;;;19.78;94.63;91923.16;5074764;28;20238;-73
2022/09/17 11:48:04;;;;;;;8.27;7.87;;;;;;;18.87;92.23;91916.03;5065595;28;20194;-71